Flight Track Log - Related Links

Times and Time Zones

All times are in EDT time to prevent confusion due to time zone crossing. See the SWA3943 flight status page for this flight to view local times or setup timezone preferences in your user account.


Time Position Orientation Groundspeed Altitude Reporting Facility
EDT Latitude Longitude Course Direction KTS MPH feet Rate Location/Type
Mon 06:50:27 PM 28.4333 -81.3000 12° North 150 173 800  Level Orlando TRACON
Mon 06:51:39 PM 28.5000 -81.2833 12° North 206 237 3,400 1,864 Climbing Orlando TRACON
Mon 06:52:39 PM 28.5500 -81.2500 30° Northeast 265 305 4,900 2,571 Climbing Orlando TRACON
Mon 06:54:20 PM 28.6675 -81.2600 356° North 262 302 10,300 2,907 Climbing Jacksonville Center
Mon 06:55:20 PM 28.7556 -81.2844 346° North 284 327 12,700 2,650 Climbing Jacksonville Center
Mon 06:56:20 PM 28.8519 -81.3161 344° North 325 374 15,600 2,650 Climbing Jacksonville Center
Mon 06:57:20 PM 28.9544 -81.3431 347° North 357 411 18,000 1,200 Climbing Jacksonville Center
Mon 06:58:20 PM 29.0592 -81.3769 344° North 376 433 18,000 400 Level Jacksonville Center
Mon 06:59:20 PM 29.1681 -81.3944 352° North 382 440 18,800 1,800 Climbing Jacksonville Center
Mon 07:00:20 PM 29.2789 -81.4094 353° North 392 451 21,600 2,550 Climbing Jacksonville Center
Mon 07:01:20 PM 29.3856 -81.4269 352° North 397 457 23,900 2,400 Climbing Jacksonville Center
Mon 07:02:20 PM 29.5092 -81.4750 341° North 402 463 26,400 1,950 Climbing Jacksonville Center
Mon 07:03:20 PM 29.5994 -81.5311 332° Northwest 402 463 27,800 1,500 Climbing Jacksonville Center
Mon 07:04:20 PM 29.7067 -81.6036 330° Northwest 421 484 29,400 1,800 Climbing Jacksonville Center
Mon 07:05:20 PM 29.8119 -81.6767 329° Northwest 440 506 31,400 1,800 Climbing Jacksonville Center
Mon 07:06:20 PM 29.9189 -81.7472 330° Northwest 447 514 33,000 1,750 Climbing Jacksonville Center
Mon 07:07:20 PM 30.0383 -81.7769 348° North 439 505 34,900 1,200 Climbing Jacksonville Center
Mon 07:08:20 PM 30.1594 -81.7875 356° North 430 495 35,400 850 Climbing Jacksonville Center
Mon 07:09:20 PM 30.2847 -81.8006 355° North 436 502 36,600 800 Climbing Jacksonville Center
Mon 07:10:20 PM 30.4081 -81.8136 355° North 447 514 37,000 200 Climbing Jacksonville Center
Mon 07:11:20 PM 30.5356 -81.8267 355° North 447 514 37,000  Level Jacksonville Center
Mon 07:12:20 PM 30.6778 -81.8467 353° North 460 529 37,000  Level Jacksonville Center
Mon 07:13:20 PM 30.8053 -81.8597 355° North 460 529 37,000  Level Jacksonville Center
Mon 07:14:20 PM 30.9328 -81.8753 354° North 460 529 37,000  Level Jacksonville Center
Mon 07:15:20 PM 31.0581 -81.8861 356° North 460 529 37,000  Level Jacksonville Center
Mon 07:16:20 PM 31.1833 -81.8969 356° North 452 520 37,000  Level Jacksonville Center
Mon 07:17:20 PM 31.3089 -81.9125 354° North 447 514 37,000  Level Jacksonville Center
Mon 07:18:20 PM 31.4319 -81.9236 356° North 446 513 37,000  Level Jacksonville Center
Mon 07:19:20 PM 31.5575 -81.9369 355° North 440 506 37,000  Level Jacksonville Center
Mon 07:20:20 PM 31.6681 -81.9478 355° North 445 512 37,000  Level Jacksonville Center
Mon 07:22:29 PM 31.9506 -81.9778 355° North 463 533 37,000  Level Atlanta Center
Mon 07:23:29 PM 32.0781 -81.9922 355° North 458 527 37,000  Level Atlanta Center
Mon 07:24:29 PM 32.2056 -82.0039 356° North 458 527 37,000  Level Atlanta Center
Mon 07:25:29 PM 32.3186 -82.0136 356° North 463 533 37,000  Level Atlanta Center
Mon 07:26:29 PM 32.4461 -82.0256 355° North 463 533 37,000  Level Atlanta Center
Mon 07:27:29 PM 32.5736 -82.0397 355° North 463 533 37,000  Level Atlanta Center
Mon 07:28:29 PM 32.7011 -82.0467 357° North 463 533 37,000  Level Atlanta Center
Mon 07:29:29 PM 32.8306 -82.0489 359° North 463 533 37,000  Level Atlanta Center
Mon 07:30:29 PM 32.9578 -82.0483 360° North 458 527 37,000  Level Atlanta Center
Mon 07:31:29 PM 33.0872 -82.0456 North 458 527 37,000  Level Atlanta Center
Mon 07:32:29 PM 33.2125 -82.0450 360° North 458 527 37,000  Level Atlanta Center
Mon 07:33:29 PM 33.3522 -82.0444 360° North 458 527 37,000  Level Atlanta Center
Mon 07:34:29 PM 33.4775 -82.0439 360° North 458 527 37,000  Level Atlanta Center
Mon 07:35:29 PM 33.6089 -82.0433 360° North 458 527 37,000  Level Atlanta Center
Mon 07:36:29 PM 33.7406 -82.0428 360° North 463 533 37,000  Level Atlanta Center
Mon 07:37:29 PM 33.8739 -82.0422 360° North 468 539 37,000  Level Atlanta Center
Mon 07:38:29 PM 34.0075 -82.0417 360° North 468 539 37,000  Level Atlanta Center
Mon 07:39:29 PM 34.1411 -82.0433 359° North 474 545 37,000  Level Atlanta Center
Mon 07:40:29 PM 34.2747 -82.0428 360° North 479 551 37,000  Level Atlanta Center
Mon 07:41:29 PM 34.3958 -82.0425 360° North 479 551 37,000  Level Atlanta Center
Mon 07:42:29 PM 34.5294 -82.0419 360° North 479 551 37,000  Level Atlanta Center
Mon 07:43:29 PM 34.6650 -82.0411 360° North 474 545 37,000  Level Atlanta Center
Mon 07:44:29 PM 34.7986 -82.0406 360° North 480 552 37,000  Level Atlanta Center
Mon 07:45:29 PM 34.9364 -82.0447 359° North 485 558 37,000  Level Atlanta Center
Mon 07:46:29 PM 35.0697 -82.0417 North 480 552 37,000  Level Atlanta Center
Mon 07:47:29 PM 35.2181 -82.0431 360° North 475 547 37,000  Level Atlanta Center
Mon 07:48:29 PM 35.3514 -82.0425 360° North 476 548 37,000  Level Atlanta Center
Mon 07:49:29 PM 35.4892 -82.0417 360° North 476 548 37,000  Level Atlanta Center
Mon 07:50:29 PM 35.6247 -82.0408 360° North 481 554 37,000  Level Atlanta Center
Mon 07:51:29 PM 35.7644 -82.0400 360° North 487 560 37,000  Level Atlanta Center
Mon 07:52:29 PM 35.8981 -82.0392 360° North 492 566 37,000  Level Atlanta Center
Mon 07:53:29 PM 36.0211 -82.0389 360° North 492 566 37,000  Level Atlanta Center
Mon 07:54:29 PM 36.1567 -82.0406 359° North 492 566 37,000  Level Atlanta Center
Mon 07:55:29 PM 36.2944 -82.0372 North 484 557 37,000  Level Atlanta Center
Mon 07:56:29 PM 36.4319 -82.0364 360° North 484 557 37,000  Level Atlanta Center
Mon 07:57:29 PM 36.5653 -82.0331 North 479 551 37,000  Level Atlanta Center
Mon 07:58:29 PM 36.7008 -82.0347 359° North 479 551 37,000  Level Atlanta Center
Mon 08:00:32 PM 36.9894 -82.0319 360° North 486 559 37,000 -163 Level Indianapolis Center
Mon 08:01:33 PM 37.1239 -82.0328 360° North 486 559 36,500 -738 Descending Indianapolis Center
Mon 08:02:34 PM 37.2578 -82.0322 360° North 483 556 35,500 -927 Descending Indianapolis Center
Mon 08:03:36 PM 37.3906 -82.0317 360° North 479 551 34,600 -878 Descending Indianapolis Center
Mon 08:04:37 PM 37.5242 -82.0319 360° North 482 555 33,700 -927 Descending Indianapolis Center
Mon 08:05:39 PM 37.6572 -82.0308 360° North 479 551 32,700 -1,073 Descending Indianapolis Center
Mon 08:06:40 PM 37.8042 -82.0300 360° North 458 527 31,500 -836 Descending Indianapolis Center
Mon 08:07:41 PM 37.9067 -82.0300 360° North 442 509 31,000 -244 Descending Indianapolis Center
Mon 08:08:43 PM 38.0292 -82.0286 North 440 506 31,000  Level Indianapolis Center
Mon 08:09:44 PM 38.1783 -82.0278 360° North 442 509 31,000  Level Indianapolis Center
Mon 08:10:46 PM 38.3036 -82.0281 360° North 447 514 31,000  Level Indianapolis Center
Mon 08:11:47 PM 38.4300 -82.0283 360° North 450 518 31,000 -49 Level Indianapolis Center
Mon 08:12:48 PM 38.5564 -82.0275 360° North 450 518 30,900 -1,024 Descending Indianapolis Center
Mon 08:13:50 PM 38.6761 -82.0261 North 429 494 28,900 -2,146 Descending Indianapolis Center
Mon 08:14:51 PM 38.7919 -82.0394 355° North 414 476 26,500 -2,293 Descending Indianapolis Center
Mon 08:15:53 PM 38.8967 -82.0833 342° North 394 453 24,200 -1,707 Descending Indianapolis Center
Mon 08:16:54 PM 39.0011 -82.1244 343° North 391 450 23,000 -1,770 Descending Indianapolis Center
Mon 08:17:55 PM 39.1044 -82.1661 343° North 387 445 20,600 -2,390 Descending Indianapolis Center
Mon 08:18:57 PM 39.2058 -82.2064 343° North 381 438 18,100 -2,341 Descending Indianapolis Center
Mon 08:19:58 PM 39.3042 -82.2458 343° North 370 426 15,800 -2,526 Descending Indianapolis Center
Mon 08:20:51 PM 39.4047 -82.2869 342° North 360 414 13,300 -2,439 Descending Indianapolis Center
Mon 08:22:01 PM 39.5133 -82.3300 343° North 353 406 10,800 -1,525 Descending Indianapolis Center
Mon 08:22:53 PM 39.5744 -82.3831 326° Northwest 313 360 10,200 -1,018 Descending Indianapolis Center
Mon 08:23:53 PM 39.6400 -82.4386 327° Northwest 288 331 8,900 -1,398 Descending Indianapolis Center
Mon 08:25:06 PM 39.7169 -82.5081 325° Northwest 281 323 7,100 -1,426 Descending Indianapolis Center
Mon 08:25:55 PM 39.7722 -82.5614 323° Northwest 282 325 6,000 -1,036 Descending Indianapolis Center
Mon 08:26:56 PM 39.8336 -82.6169 325° Northwest 260 299 5,200 -984 Descending Indianapolis Center
Mon 08:27:57 PM 39.8931 -82.6694 326° Northwest 263 303 4,000 -750 Descending Indianapolis Center
Mon 08:29:04 PM 39.9522 -82.7250 324° Northwest 216 249 3,600 -794 Descending Indianapolis Center
Mon 08:30:13 PM 39.9914 -82.7789 313° West 228 262 2,200 -1,078 Descending Indianapolis Center
Mon 08:31:12 PM 39.9922 -82.8464 271° West 157 181 1,300 -537 Descending Indianapolis Center
Mon 08:32:16 PM 39.9933 -82.9014 272° West 187 215 1,100 -188 Descending Indianapolis Center

Login

Don't have an account? Register now (free) for customized features, flight alerts, and more!